CheckWX is a tool to help pilots better visualize weather data.  It is not intended as a substitute for an official pre-flight weather briefing.

12:19:59 UTC

KDLS TAF
Columbia Gorge Regional / The Dalles Municipal Airport
The Dalles, Oregon, USA
KDLS 271120Z 2712/2812 VRB05KT P6SM SCT030 BKN045 FM271700 VRB02KT P6SM OVC050 FM272000 VRB03KT 4SM -RA BR BKN015 OVC025 FM280600 VRB03KT 3SM -RA BR OVC012

Jan-27@
12:00 UTC

Jan-27 @ 12:00 UTC

Jan-27@
17:00 UTC

Jan-27 @ 17:00 UTC

KDLS 271120Z 2712/2812 VRB05KT P6SM SCT030 BKN045
Wind
  • Variable at 5 KTS
Cloud Levels
  • Scattered at 3,000' AGL
  • Broken at 4,500' AGL

Jan-27@
17:00 UTC

Jan-27 @ 17:00 UTC

Jan-27@
20:00 UTC

Jan-27 @ 20:00 UTC

FM271700 VRB02KT P6SM OVC050

From

From Standard forecast or significant change

Wind
  • Variable at 2 KTS
Cloud Levels
  • Overcast at 5,000' AGL

Jan-27@
20:00 UTC

Jan-27 @ 20:00 UTC

Jan-28@
06:00 UTC

Jan-28 @ 06:00 UTC

FM272000 VRB03KT 4SM -RA BR BKN015 OVC025

From

From Standard forecast or significant change

Wind
  • Variable at 3 KTS
Conditions
Light Rain, Mist
Cloud Levels
  • Broken at 1,500' AGL
  • Overcast at 2,500' AGL

Jan-28@
06:00 UTC

Jan-28 @ 06:00 UTC

Jan-28@
12:00 UTC

Jan-28 @ 12:00 UTC

FM280600 VRB03KT 3SM -RA BR OVC012

From

From Standard forecast or significant change

Wind
  • Variable at 3 KTS
Conditions
Light Rain, Mist
Cloud Levels
  • Overcast at 1,200' AGL